»·PEaware :: KSA717 KSLC-KRNO

KSA717 :: KSLC-KRNO

FLIGHT INFORMATION

Flight Status: Arrived
Operator: Unknown
More flights by this operator :: More flights under this callsign
Pilot: Ty S. (2873)
Aircraft: MCDONNELL-DOUGLAS MD-88
(MD88)
More flights by this aircraft type
Origin: KSLC Salt Lake City Intl
United States
Destination: KRNO Reno/Tahoe Intl
United States
More flights between these airports :: More routes between these airports
Route: +DEZRT1 BAM MYBAD MYBAD2
File this flight plan on PilotEdge
Remarks: SK CAMEL
Altitude:
(Current/Filed)
32,000ft
Speed:
(Current/Filed)
447kts
Departed: 03-Jan-20 06:39 PM
Arrived: 03-Jan-20 07:50 PM
Distance/Time
Traveled:
365nm/1:10
Distance/Time
To Go:
Arrived

Flight Plot

Page will automatically refresh every two minutes.

Flight plan parsing failed; only flown route is shown


Map Options




Map Legend


Flown Route
Filed Route
Departure Airport
Arrival Airport
Navaid (VOR, NDB)
Fix

Horizontal Profiles

Position Reports

Time Latitude Longitude Heading Altitude Ground
Speed
03-Jan-20 18:10 40.777038 -111.959114 270 4233ft 0kts
03-Jan-20 18:11 40.777038 -111.959114 270 4233ft 0kts
03-Jan-20 18:12 40.777038 -111.959114 270 4233ft 0kts
03-Jan-20 18:13 40.777038 -111.959114 270 4233ft 0kts
03-Jan-20 18:14 40.777038 -111.959114 270 4233ft 0kts
03-Jan-20 18:15 40.777038 -111.959114 270 4233ft 0kts
03-Jan-20 18:16 40.777038 -111.959114 270 4233ft 0kts
03-Jan-20 18:17 40.777038 -111.959114 270 4233ft 0kts
03-Jan-20 18:18 40.777038 -111.959114 270 4233ft 0kts
03-Jan-20 18:19 40.777038 -111.959114 270 4233ft 0kts
03-Jan-20 18:20 40.777038 -111.959114 270 4233ft 0kts
03-Jan-20 18:21 40.777038 -111.959114 270 4233ft 0kts
03-Jan-20 18:22 40.777038 -111.959114 270 4233ft 0kts
03-Jan-20 18:23 40.777038 -111.959114 270 4233ft 0kts
03-Jan-20 18:24 40.777038 -111.959114 270 4233ft 0kts
03-Jan-20 18:25 40.777038 -111.959114 270 4233ft 0kts
03-Jan-20 18:26 40.777038 -111.959114 270 4233ft 0kts
03-Jan-20 18:27 40.777038 -111.959114 270 4233ft 0kts
03-Jan-20 18:28 40.777038 -111.959114 270 4233ft 0kts
03-Jan-20 18:29 40.777038 -111.959114 270 4233ft 0kts
03-Jan-20 18:30 40.777038 -111.959114 270 4233ft 0kts
03-Jan-20 18:31 40.777615 -111.959848 357 4233ft 0kts
03-Jan-20 18:32 40.779204 -111.959994 358 4233ft 14kts
03-Jan-20 18:33 40.784004 -111.959995 359 4233ft 15kts
03-Jan-20 18:34 40.789439 -111.959993 357 4233ft 25kts
03-Jan-20 18:35 40.796277 -111.960006 0 4233ft 21kts
03-Jan-20 18:36 40.798724 -111.960221 314 4233ft 0kts
03-Jan-20 18:37 40.798847 -111.960476 291 4233ft 7kts
03-Jan-20 18:39 40.795492 -111.962084 179 4233ft 58kts
03-Jan-20 18:40 40.758535 -111.963713 201 5198ft 156kts
03-Jan-20 18:41 40.762900 -112.014984 306 6760ft 196kts
03-Jan-20 18:42 40.801898 -112.079836 306 8738ft 247kts
03-Jan-20 18:43 40.838081 -112.157694 280 11724ft 258kts
03-Jan-20 18:44 40.847352 -112.253319 282 14521ft 265kts
03-Jan-20 18:45 40.859680 -112.347625 283 15003ft 263kts
03-Jan-20 18:46 40.871681 -112.444062 275 14997ft 268kts
03-Jan-20 18:47 40.864621 -112.549587 268 15309ft 323kts
03-Jan-20 18:48 40.854991 -112.672435 267 17459ft 349kts
03-Jan-20 18:49 40.844210 -112.802252 268 19821ft 360kts
03-Jan-20 18:50 40.841700 -112.935410 275 21907ft 367kts
03-Jan-20 18:51 40.841486 -113.072757 275 23799ft 376kts
03-Jan-20 18:52 40.841160 -113.212590 275 25479ft 383kts
03-Jan-20 18:53 40.840987 -113.354807 275 26950ft 390kts
03-Jan-20 18:54 40.840989 -113.499367 276 28221ft 395kts
03-Jan-20 18:55 40.841177 -113.645764 276 29286ft 399kts
03-Jan-20 18:56 40.841536 -113.788391 276 30198ft 402kts
03-Jan-20 18:57 40.841415 -113.936537 275 31206ft 401kts
03-Jan-20 18:58 40.839670 -114.082828 275 32164ft 396kts
03-Jan-20 18:59 40.837964 -114.228417 275 32393ft 396kts
03-Jan-20 18:59 40.836668 -114.349076 276 32392ft 392kts
03-Jan-20 19:01 40.835083 -114.517485 276 32393ft 392kts
03-Jan-20 19:02 40.833934 -114.659839 275 32394ft 392kts
03-Jan-20 19:02 40.850799 -114.774653 292 32395ft 380kts
03-Jan-20 19:04 40.888525 -114.930208 292 32368ft 381kts
03-Jan-20 19:04 40.916220 -115.041864 292 32361ft 381kts
03-Jan-20 19:05 40.926526 -115.179603 254 32411ft 407kts
03-Jan-20 19:07 40.891589 -115.346328 260 32359ft 402kts
03-Jan-20 19:07 40.866797 -115.464847 259 32359ft 402kts
03-Jan-20 19:08 40.836799 -115.607804 260 32357ft 402kts
03-Jan-20 19:10 40.802336 -115.772995 259 32364ft 402kts
03-Jan-20 19:10 40.777708 -115.891729 259 32365ft 402kts
03-Jan-20 19:11 40.748344 -116.034082 260 32363ft 402kts
03-Jan-20 19:12 40.719153 -116.176473 260 32362ft 402kts
03-Jan-20 19:13 40.690233 -116.318361 260 32351ft 402kts
03-Jan-20 19:14 40.661402 -116.460668 260 32342ft 402kts
03-Jan-20 19:15 40.632804 -116.602709 260 32341ft 401kts
03-Jan-20 19:16 40.604923 -116.742023 260 32350ft 402kts
03-Jan-20 19:17 40.576525 -116.884775 260 32348ft 403kts
03-Jan-20 19:18 40.555875 -117.027385 264 32347ft 391kts
03-Jan-20 19:19 40.537939 -117.167341 263 32345ft 385kts
03-Jan-20 19:20 40.549603 -117.304812 282 32347ft 383kts
03-Jan-20 19:21 40.573683 -117.441913 283 32333ft 382kts
03-Jan-20 19:22 40.597919 -117.578822 283 32309ft 382kts
03-Jan-20 19:23 40.622031 -117.714298 282 32314ft 383kts
03-Jan-20 19:24 40.646314 -117.851099 282 32312ft 383kts
03-Jan-20 19:25 40.670551 -117.987814 282 32310ft 383kts
03-Jan-20 19:26 40.648048 -118.118429 232 32325ft 406kts
03-Jan-20 19:27 40.558441 -118.213233 223 32305ft 415kts
03-Jan-20 19:28 40.464145 -118.301654 222 32299ft 415kts
03-Jan-20 19:29 40.376051 -118.396485 239 32302ft 400kts
03-Jan-20 19:30 40.319137 -118.521165 244 31099ft 397kts
03-Jan-20 19:31 40.263059 -118.643750 245 29540ft 385kts
03-Jan-20 19:32 40.215781 -118.764273 245 28074ft 375kts
03-Jan-20 19:33 40.168156 -118.884889 244 26562ft 365kts
03-Jan-20 19:34 40.122233 -119.001283 243 25038ft 352kts
03-Jan-20 19:35 40.077848 -119.113980 243 23504ft 344kts
03-Jan-20 19:36 40.034121 -119.224591 242 21962ft 338kts
03-Jan-20 19:37 39.990649 -119.333208 241 20413ft 332kts
03-Jan-20 19:38 39.952354 -119.429067 241 18674ft 271kts
03-Jan-20 19:39 39.914358 -119.513489 236 17303ft 263kts
03-Jan-20 19:40 39.876411 -119.592072 236 15690ft 254kts
03-Jan-20 19:41 39.836979 -119.667201 233 12981ft 249kts
03-Jan-20 19:42 39.797909 -119.741195 233 10298ft 250kts
03-Jan-20 19:43 39.747752 -119.785431 177 9316ft 202kts
03-Jan-20 19:44 39.690147 -119.776533 171 8435ft 215kts
03-Jan-20 19:45 39.630884 -119.769185 174 7119ft 207kts
03-Jan-20 19:46 39.580139 -119.768957 178 5881ft 157kts
03-Jan-20 19:47 39.537026 -119.769003 179 4997ft 154kts
03-Jan-20 19:48 39.498921 -119.769256 180 4421ft 93kts
03-Jan-20 19:49 39.494487 -119.767916 30 4421ft 17kts
03-Jan-20 19:50 39.497317 -119.765195 359 4421ft 7kts
03-Jan-20 19:51 39.498415 -119.764472 275 4421ft 0kts

Navigation Log

Ident Type
Flight plan parsing failed, navigation log unavailable